sensor_id;sensor_type;location;lat;lon;timestamp;P1;durP1;ratioP1;P2;durP2;ratioP2
76593;SDS011;65482;50.240;14.302;2023-04-24T00:00:25;17.63;;;11.82;;
76593;SDS011;65482;50.240;14.302;2023-04-24T00:03:11;17.75;;;11.75;;
76593;SDS011;65482;50.240;14.302;2023-04-24T00:05:37;20.13;;;12.07;;
76593;SDS011;65482;50.240;14.302;2023-04-24T00:08:05;19.10;;;11.95;;
76593;SDS011;65482;50.240;14.302;2023-04-24T00:10:31;17.48;;;11.82;;
76593;SDS011;65482;50.240;14.302;2023-04-24T00:12:57;20.02;;;11.98;;
76593;SDS011;65482;50.240;14.302;2023-04-24T00:15:23;21.60;;;11.98;;
76593;SDS011;65482;50.240;14.302;2023-04-24T00:17:49;20.23;;;11.45;;
76593;SDS011;65482;50.240;14.302;2023-04-24T00:20:14;16.48;;;11.20;;
76593;SDS011;65482;50.240;14.302;2023-04-24T00:22:40;18.55;;;11.68;;
76593;SDS011;65482;50.240;14.302;2023-04-24T00:25:06;16.17;;;11.18;;
76593;SDS011;65482;50.240;14.302;2023-04-24T00:27:32;20.17;;;11.48;;
76593;SDS011;65482;50.240;14.302;2023-04-24T00:29:58;19.70;;;12.00;;
76593;SDS011;65482;50.240;14.302;2023-04-24T00:32:23;19.38;;;11.77;;
76593;SDS011;65482;50.240;14.302;2023-04-24T00:34:49;21.10;;;12.80;;
76593;SDS011;65482;50.240;14.302;2023-04-24T00:37:15;22.15;;;14.10;;
76593;SDS011;65482;50.240;14.302;2023-04-24T00:39:40;27.25;;;15.52;;
76593;SDS011;65482;50.240;14.302;2023-04-24T00:42:06;35.60;;;17.95;;
76593;SDS011;65482;50.240;14.302;2023-04-24T00:44:34;22.83;;;14.23;;
76593;SDS011;65482;50.240;14.302;2023-04-24T00:47:00;21.05;;;12.60;;
76593;SDS011;65482;50.240;14.302;2023-04-24T00:49:26;18.05;;;12.07;;
76593;SDS011;65482;50.240;14.302;2023-04-24T00:51:52;18.75;;;11.88;;
76593;SDS011;65482;50.240;14.302;2023-04-24T00:54:19;18.50;;;11.88;;
76593;SDS011;65482;50.240;14.302;2023-04-24T00:56:45;17.67;;;11.63;;
76593;SDS011;65482;50.240;14.302;2023-04-24T00:59:11;18.63;;;11.90;;
76593;SDS011;65482;50.240;14.302;2023-04-24T01:01:38;19.85;;;12.38;;
76593;SDS011;65482;50.240;14.302;2023-04-24T01:04:07;17.52;;;12.40;;
76593;SDS011;65482;50.240;14.302;2023-04-24T01:06:33;18.55;;;12.23;;
76593;SDS011;65482;50.240;14.302;2023-04-24T01:08:59;18.48;;;12.57;;
76593;SDS011;65482;50.240;14.302;2023-04-24T01:11:25;20.77;;;12.52;;
76593;SDS011;65482;50.240;14.302;2023-04-24T01:13:51;17.75;;;11.35;;
76593;SDS011;65482;50.240;14.302;2023-04-24T01:16:17;20.48;;;11.55;;
76593;SDS011;65482;50.240;14.302;2023-04-24T01:18:45;16.23;;;9.95;;
76593;SDS011;65482;50.240;14.302;2023-04-24T01:21:12;17.83;;;10.30;;
76593;SDS011;65482;50.240;14.302;2023-04-24T01:23:38;16.70;;;11.32;;
76593;SDS011;65482;50.240;14.302;2023-04-24T01:26:05;18.27;;;11.00;;
76593;SDS011;65482;50.240;14.302;2023-04-24T01:28:31;16.52;;;10.55;;
76593;SDS011;65482;50.240;14.302;2023-04-24T01:30:56;16.90;;;11.00;;
76593;SDS011;65482;50.240;14.302;2023-04-24T01:33:22;16.42;;;11.00;;
76593;SDS011;65482;50.240;14.302;2023-04-24T01:35:48;15.48;;;10.90;;
76593;SDS011;65482;50.240;14.302;2023-04-24T01:38:14;17.40;;;10.82;;
76593;SDS011;65482;50.240;14.302;2023-04-24T01:40:40;18.33;;;10.88;;
76593;SDS011;65482;50.240;14.302;2023-04-24T01:43:05;16.33;;;9.55;;
76593;SDS011;65482;50.240;14.302;2023-04-24T01:45:31;12.30;;;8.70;;
76593;SDS011;65482;50.240;14.302;2023-04-24T01:47:57;15.55;;;9.70;;
76593;SDS011;65482;50.240;14.302;2023-04-24T01:50:24;13.68;;;9.50;;
76593;SDS011;65482;50.240;14.302;2023-04-24T01:52:49;14.60;;;9.55;;
76593;SDS011;65482;50.240;14.302;2023-04-24T01:55:15;13.27;;;8.98;;
76593;SDS011;65482;50.240;14.302;2023-04-24T01:57:40;14.15;;;8.40;;
76593;SDS011;65482;50.240;14.302;2023-04-24T02:00:07;13.25;;;8.32;;
76593;SDS011;65482;50.240;14.302;2023-04-24T02:02:33;12.23;;;7.63;;
76593;SDS011;65482;50.240;14.302;2023-04-24T02:04:59;11.60;;;7.65;;
76593;SDS011;65482;50.240;14.302;2023-04-24T02:07:25;11.55;;;8.13;;
76593;SDS011;65482;50.240;14.302;2023-04-24T02:09:52;9.48;;;6.28;;
76593;SDS011;65482;50.240;14.302;2023-04-24T02:12:17;8.50;;;5.32;;
76593;SDS011;65482;50.240;14.302;2023-04-24T02:14:43;8.45;;;5.05;;
76593;SDS011;65482;50.240;14.302;2023-04-24T02:17:09;5.20;;;2.90;;
76593;SDS011;65482;50.240;14.302;2023-04-24T02:19:38;8.90;;;5.32;;
76593;SDS011;65482;50.240;14.302;2023-04-24T02:22:04;11.32;;;5.93;;
76593;SDS011;65482;50.240;14.302;2023-04-24T02:24:30;10.60;;;6.38;;
76593;SDS011;65482;50.240;14.302;2023-04-24T02:26:56;8.15;;;5.13;;
76593;SDS011;65482;50.240;14.302;2023-04-24T02:29:23;8.57;;;4.85;;
76593;SDS011;65482;50.240;14.302;2023-04-24T02:31:48;8.18;;;4.72;;
76593;SDS011;65482;50.240;14.302;2023-04-24T02:34:15;4.45;;;3.28;;
76593;SDS011;65482;50.240;14.302;2023-04-24T02:36:41;5.53;;;3.40;;
76593;SDS011;65482;50.240;14.302;2023-04-24T02:39:07;4.65;;;3.28;;
76593;SDS011;65482;50.240;14.302;2023-04-24T02:41:33;5.20;;;3.53;;
76593;SDS011;65482;50.240;14.302;2023-04-24T02:43:58;7.03;;;3.97;;
76593;SDS011;65482;50.240;14.302;2023-04-24T02:46:24;6.80;;;4.32;;
76593;SDS011;65482;50.240;14.302;2023-04-24T02:48:50;7.63;;;4.57;;
76593;SDS011;65482;50.240;14.302;2023-04-24T02:51:15;10.80;;;5.50;;
76593;SDS011;65482;50.240;14.302;2023-04-24T02:53:41;9.10;;;4.65;;
76593;SDS011;65482;50.240;14.302;2023-04-24T02:56:10;6.72;;;4.40;;
76593;SDS011;65482;50.240;14.302;2023-04-24T02:58:38;10.18;;;4.30;;
76593;SDS011;65482;50.240;14.302;2023-04-24T03:01:04;8.70;;;4.70;;
76593;SDS011;65482;50.240;14.302;2023-04-24T03:03:30;7.22;;;4.15;;
76593;SDS011;65482;50.240;14.302;2023-04-24T03:05:56;7.50;;;3.90;;
76593;SDS011;65482;50.240;14.302;2023-04-24T03:08:22;5.18;;;3.83;;
76593;SDS011;65482;50.240;14.302;2023-04-24T03:10:51;4.53;;;3.17;;
76593;SDS011;65482;50.240;14.302;2023-04-24T03:13:16;4.65;;;3.20;;
76593;SDS011;65482;50.240;14.302;2023-04-24T03:15:42;6.88;;;3.58;;
76593;SDS011;65482;50.240;14.302;2023-04-24T03:18:08;8.38;;;3.50;;
76593;SDS011;65482;50.240;14.302;2023-04-24T03:20:33;4.82;;;3.30;;
76593;SDS011;65482;50.240;14.302;2023-04-24T03:22:59;5.78;;;3.10;;
76593;SDS011;65482;50.240;14.302;2023-04-24T03:25:25;4.72;;;3.00;;
76593;SDS011;65482;50.240;14.302;2023-04-24T03:27:51;4.28;;;3.08;;
76593;SDS011;65482;50.240;14.302;2023-04-24T03:30:16;4.05;;;3.05;;
76593;SDS011;65482;50.240;14.302;2023-04-24T03:32:42;5.72;;;2.88;;
76593;SDS011;65482;50.240;14.302;2023-04-24T03:35:07;6.32;;;3.20;;
76593;SDS011;65482;50.240;14.302;2023-04-24T03:37:34;7.93;;;3.00;;
76593;SDS011;65482;50.240;14.302;2023-04-24T03:39:59;4.47;;;2.90;;
76593;SDS011;65482;50.240;14.302;2023-04-24T03:42:25;4.50;;;3.00;;
76593;SDS011;65482;50.240;14.302;2023-04-24T03:44:51;4.95;;;3.20;;
76593;SDS011;65482;50.240;14.302;2023-04-24T03:47:16;6.35;;;3.33;;
76593;SDS011;65482;50.240;14.302;2023-04-24T03:49:42;6.80;;;2.97;;
76593;SDS011;65482;50.240;14.302;2023-04-24T03:52:07;4.18;;;2.78;;
76593;SDS011;65482;50.240;14.302;2023-04-24T03:54:33;3.63;;;3.00;;
76593;SDS011;65482;50.240;14.302;2023-04-24T03:56:59;5.95;;;4.13;;
76593;SDS011;65482;50.240;14.302;2023-04-24T03:59:25;7.20;;;4.40;;
76593;SDS011;65482;50.240;14.302;2023-04-24T04:01:50;6.65;;;4.35;;
76593;SDS011;65482;50.240;14.302;2023-04-24T04:04:16;7.35;;;4.60;;
76593;SDS011;65482;50.240;14.302;2023-04-24T04:06:42;7.07;;;4.00;;
76593;SDS011;65482;50.240;14.302;2023-04-24T04:09:09;7.28;;;3.92;;
76593;SDS011;65482;50.240;14.302;2023-04-24T04:11:35;6.13;;;3.90;;
76593;SDS011;65482;50.240;14.302;2023-04-24T04:14:01;5.47;;;4.45;;
76593;SDS011;65482;50.240;14.302;2023-04-24T04:16:26;6.60;;;4.20;;
76593;SDS011;65482;50.240;14.302;2023-04-24T04:18:52;6.47;;;4.70;;
76593;SDS011;65482;50.240;14.302;2023-04-24T04:21:17;6.93;;;4.20;;
76593;SDS011;65482;50.240;14.302;2023-04-24T04:23:43;5.97;;;4.07;;
76593;SDS011;65482;50.240;14.302;2023-04-24T04:26:10;6.03;;;3.95;;
76593;SDS011;65482;50.240;14.302;2023-04-24T04:28:37;6.18;;;3.80;;
76593;SDS011;65482;50.240;14.302;2023-04-24T04:31:05;6.97;;;4.50;;
76593;SDS011;65482;50.240;14.302;2023-04-24T04:33:33;5.57;;;3.75;;
76593;SDS011;65482;50.240;14.302;2023-04-24T04:35:59;8.10;;;4.10;;
76593;SDS011;65482;50.240;14.302;2023-04-24T04:38:26;7.60;;;4.13;;
76593;SDS011;65482;50.240;14.302;2023-04-24T04:40:55;6.53;;;4.32;;
76593;SDS011;65482;50.240;14.302;2023-04-24T04:43:24;7.45;;;4.72;;
76593;SDS011;65482;50.240;14.302;2023-04-24T04:45:50;7.05;;;4.07;;
76593;SDS011;65482;50.240;14.302;2023-04-24T04:48:17;7.53;;;4.82;;
76593;SDS011;65482;50.240;14.302;2023-04-24T04:50:44;7.00;;;4.45;;
76593;SDS011;65482;50.240;14.302;2023-04-24T04:53:09;9.00;;;4.60;;
76593;SDS011;65482;50.240;14.302;2023-04-24T04:55:36;7.72;;;4.55;;
76593;SDS011;65482;50.240;14.302;2023-04-24T04:58:02;10.50;;;4.70;;
76593;SDS011;65482;50.240;14.302;2023-04-24T05:00:28;5.18;;;4.22;;
76593;SDS011;65482;50.240;14.302;2023-04-24T05:02:59;8.63;;;4.75;;
76593;SDS011;65482;50.240;14.302;2023-04-24T05:05:25;6.93;;;4.35;;
76593;SDS011;65482;50.240;14.302;2023-04-24T05:07:51;7.32;;;4.70;;
76593;SDS011;65482;50.240;14.302;2023-04-24T05:10:18;7.25;;;5.00;;
76593;SDS011;65482;50.240;14.302;2023-04-24T05:12:43;9.63;;;5.60;;
76593;SDS011;65482;50.240;14.302;2023-04-24T05:15:09;8.38;;;4.75;;
76593;SDS011;65482;50.240;14.302;2023-04-24T05:17:35;8.15;;;4.72;;
76593;SDS011;65482;50.240;14.302;2023-04-24T05:20:02;8.48;;;5.53;;
76593;SDS011;65482;50.240;14.302;2023-04-24T05:22:30;5.75;;;5.03;;
76593;SDS011;65482;50.240;14.302;2023-04-24T05:24:58;5.85;;;4.60;;
76593;SDS011;65482;50.240;14.302;2023-04-24T05:27:24;8.93;;;5.35;;
76593;SDS011;65482;50.240;14.302;2023-04-24T05:29:50;7.45;;;4.75;;
76593;SDS011;65482;50.240;14.302;2023-04-24T05:32:20;8.10;;;4.72;;
76593;SDS011;65482;50.240;14.302;2023-04-24T05:34:45;8.45;;;4.80;;
76593;SDS011;65482;50.240;14.302;2023-04-24T05:37:14;8.20;;;4.72;;
76593;SDS011;65482;50.240;14.302;2023-04-24T05:47:16;7.32;;;4.15;;
76593;SDS011;65482;50.240;14.302;2023-04-24T05:50:04;6.05;;;4.13;;
76593;SDS011;65482;50.240;14.302;2023-04-24T05:52:50;5.95;;;4.60;;
76593;SDS011;65482;50.240;14.302;2023-04-24T05:55:57;7.50;;;4.72;;
76593;SDS011;65482;50.240;14.302;2023-04-24T05:58:53;8.48;;;4.38;;
76593;SDS011;65482;50.240;14.302;2023-04-24T06:01:50;6.80;;;4.22;;
76593;SDS011;65482;50.240;14.302;2023-04-24T06:08:27;5.65;;;3.60;;
76593;SDS011;65482;50.240;14.302;2023-04-24T06:15:32;5.53;;;3.50;;
76593;SDS011;65482;50.240;14.302;2023-04-24T06:19:20;6.03;;;4.32;;
76593;SDS011;65482;50.240;14.302;2023-04-24T06:22:38;4.43;;;4.03;;
76593;SDS011;65482;50.240;14.302;2023-04-24T06:37:24;4.25;;;3.28;;
76593;SDS011;65482;50.240;14.302;2023-04-24T06:39:51;6.55;;;3.70;;
76593;SDS011;65482;50.240;14.302;2023-04-24T06:42:16;6.82;;;4.28;;
76593;SDS011;65482;50.240;14.302;2023-04-24T06:44:42;5.28;;;3.10;;
76593;SDS011;65482;50.240;14.302;2023-04-24T06:47:08;8.43;;;3.70;;
76593;SDS011;65482;50.240;14.302;2023-04-24T06:49:37;4.97;;;3.70;;
76593;SDS011;65482;50.240;14.302;2023-04-24T06:52:03;5.03;;;3.50;;
76593;SDS011;65482;50.240;14.302;2023-04-24T06:54:29;23.80;;;14.27;;
76593;SDS011;65482;50.240;14.302;2023-04-24T06:56:56;6.90;;;4.13;;
76593;SDS011;65482;50.240;14.302;2023-04-24T06:59:30;5.63;;;3.55;;
76593;SDS011;65482;50.240;14.302;2023-04-24T07:01:56;6.35;;;3.38;;
76593;SDS011;65482;50.240;14.302;2023-04-24T07:04:21;4.82;;;3.17;;
76593;SDS011;65482;50.240;14.302;2023-04-24T07:06:47;6.05;;;3.30;;
76593;SDS011;65482;50.240;14.302;2023-04-24T07:09:14;5.95;;;3.78;;
76593;SDS011;65482;50.240;14.302;2023-04-24T07:11:44;4.97;;;2.95;;
76593;SDS011;65482;50.240;14.302;2023-04-24T07:14:10;3.78;;;3.00;;
76593;SDS011;65482;50.240;14.302;2023-04-24T07:16:36;3.40;;;2.28;;
76593;SDS011;65482;50.240;14.302;2023-04-24T07:19:02;4.05;;;2.70;;
76593;SDS011;65482;50.240;14.302;2023-04-24T07:21:28;2.90;;;2.35;;
76593;SDS011;65482;50.240;14.302;2023-04-24T07:23:53;3.50;;;2.45;;
76593;SDS011;65482;50.240;14.302;2023-04-24T07:26:19;5.85;;;2.50;;
76593;SDS011;65482;50.240;14.302;2023-04-24T07:28:46;5.15;;;2.22;;
76593;SDS011;65482;50.240;14.302;2023-04-24T07:31:11;6.50;;;2.42;;
76593;SDS011;65482;50.240;14.302;2023-04-24T07:33:37;2.47;;;2.13;;
76593;SDS011;65482;50.240;14.302;2023-04-24T07:36:03;5.05;;;2.60;;
76593;SDS011;65482;50.240;14.302;2023-04-24T07:38:31;3.33;;;2.55;;
76593;SDS011;65482;50.240;14.302;2023-04-24T07:40:57;3.47;;;2.65;;
76593;SDS011;65482;50.240;14.302;2023-04-24T07:43:23;3.17;;;2.30;;
76593;SDS011;65482;50.240;14.302;2023-04-24T07:45:52;4.40;;;2.70;;
76593;SDS011;65482;50.240;14.302;2023-04-24T07:48:19;4.18;;;2.80;;
76593;SDS011;65482;50.240;14.302;2023-04-24T07:50:47;8.38;;;2.50;;
76593;SDS011;65482;50.240;14.302;2023-04-24T07:53:12;3.13;;;2.40;;
76593;SDS011;65482;50.240;14.302;2023-04-24T07:55:38;4.47;;;2.90;;
76593;SDS011;65482;50.240;14.302;2023-04-24T07:58:04;5.20;;;2.78;;
76593;SDS011;65482;50.240;14.302;2023-04-24T08:00:29;3.03;;;2.70;;
76593;SDS011;65482;50.240;14.302;2023-04-24T08:02:55;8.82;;;2.90;;
76593;SDS011;65482;50.240;14.302;2023-04-24T08:05:21;4.80;;;2.67;;
76593;SDS011;65482;50.240;14.302;2023-04-24T08:07:46;4.55;;;2.90;;
76593;SDS011;65482;50.240;14.302;2023-04-24T08:10:13;5.32;;;2.75;;
76593;SDS011;65482;50.240;14.302;2023-04-24T08:12:40;7.00;;;3.05;;
76593;SDS011;65482;50.240;14.302;2023-04-24T08:15:06;5.68;;;2.80;;
76593;SDS011;65482;50.240;14.302;2023-04-24T08:17:33;4.03;;;2.58;;
76593;SDS011;65482;50.240;14.302;2023-04-24T08:20:05;3.15;;;2.30;;
76593;SDS011;65482;50.240;14.302;2023-04-24T08:22:42;5.90;;;2.30;;
76593;SDS011;65482;50.240;14.302;2023-04-24T08:25:11;4.15;;;2.55;;
76593;SDS011;65482;50.240;14.302;2023-04-24T08:27:37;4.72;;;2.45;;
76593;SDS011;65482;50.240;14.302;2023-04-24T08:30:05;3.25;;;2.28;;
76593;SDS011;65482;50.240;14.302;2023-04-24T08:32:32;3.53;;;2.60;;
76593;SDS011;65482;50.240;14.302;2023-04-24T08:34:58;3.50;;;2.40;;
76593;SDS011;65482;50.240;14.302;2023-04-24T08:37:25;6.10;;;2.90;;
76593;SDS011;65482;50.240;14.302;2023-04-24T08:39:52;3.97;;;2.28;;
76593;SDS011;65482;50.240;14.302;2023-04-24T08:42:21;3.75;;;2.00;;
76593;SDS011;65482;50.240;14.302;2023-04-24T08:44:49;2.40;;;1.80;;
76593;SDS011;65482;50.240;14.302;2023-04-24T08:47:18;2.63;;;1.80;;
76593;SDS011;65482;50.240;14.302;2023-04-24T08:49:46;2.45;;;1.70;;
76593;SDS011;65482;50.240;14.302;2023-04-24T08:52:13;3.55;;;1.73;;
76593;SDS011;65482;50.240;14.302;2023-04-24T08:54:39;2.50;;;2.20;;
76593;SDS011;65482;50.240;14.302;2023-04-24T08:57:08;8.65;;;5.63;;
76593;SDS011;65482;50.240;14.302;2023-04-24T08:59:36;5.13;;;2.55;;
76593;SDS011;65482;50.240;14.302;2023-04-24T09:02:03;2.63;;;1.90;;
76593;SDS011;65482;50.240;14.302;2023-04-24T09:04:29;3.65;;;1.90;;
76593;SDS011;65482;50.240;14.302;2023-04-24T09:06:56;4.30;;;2.08;;
76593;SDS011;65482;50.240;14.302;2023-04-24T09:09:23;3.22;;;1.98;;
76593;SDS011;65482;50.240;14.302;2023-04-24T09:11:50;3.35;;;2.10;;
76593;SDS011;65482;50.240;14.302;2023-04-24T09:14:18;4.10;;;2.20;;
76593;SDS011;65482;50.240;14.302;2023-04-24T09:16:45;3.47;;;2.10;;
76593;SDS011;65482;50.240;14.302;2023-04-24T09:19:11;2.83;;;1.90;;
76593;SDS011;65482;50.240;14.302;2023-04-24T09:21:37;3.08;;;2.00;;
76593;SDS011;65482;50.240;14.302;2023-04-24T09:24:04;5.68;;;2.40;;
76593;SDS011;65482;50.240;14.302;2023-04-24T09:26:32;3.60;;;1.95;;
76593;SDS011;65482;50.240;14.302;2023-04-24T09:29:01;5.93;;;2.60;;
76593;SDS011;65482;50.240;14.302;2023-04-24T09:31:34;5.03;;;2.50;;
76593;SDS011;65482;50.240;14.302;2023-04-24T09:34:01;2.53;;;2.20;;
76593;SDS011;65482;50.240;14.302;2023-04-24T09:36:32;3.08;;;2.45;;
76593;SDS011;65482;50.240;14.302;2023-04-24T09:39:02;3.17;;;2.03;;
76593;SDS011;65482;50.240;14.302;2023-04-24T09:41:52;2.70;;;2.08;;
76593;SDS011;65482;50.240;14.302;2023-04-24T09:44:23;3.13;;;2.17;;
76593;SDS011;65482;50.240;14.302;2023-04-24T09:46:52;3.65;;;2.20;;
76593;SDS011;65482;50.240;14.302;2023-04-24T09:49:22;3.85;;;2.20;;
76593;SDS011;65482;50.240;14.302;2023-04-24T09:51:49;3.88;;;2.15;;
76593;SDS011;65482;50.240;14.302;2023-04-24T09:54:18;4.05;;;2.30;;
76593;SDS011;65482;50.240;14.302;2023-04-24T09:56:48;4.20;;;1.77;;
76593;SDS011;65482;50.240;14.302;2023-04-24T09:59:15;2.53;;;1.98;;
76593;SDS011;65482;50.240;14.302;2023-04-24T10:01:42;2.47;;;1.85;;
76593;SDS011;65482;50.240;14.302;2023-04-24T10:04:53;3.63;;;1.88;;
76593;SDS011;65482;50.240;14.302;2023-04-24T10:07:02;4.45;;;1.80;;
76593;SDS011;65482;50.240;14.302;2023-04-24T10:09:34;3.05;;;1.75;;
76593;SDS011;65482;50.240;14.302;2023-04-24T10:12:01;1.48;;;1.30;;
76593;SDS011;65482;50.240;14.302;2023-04-24T10:14:28;3.17;;;1.40;;
76593;SDS011;65482;50.240;14.302;2023-04-24T10:16:55;2.70;;;1.17;;
76593;SDS011;65482;50.240;14.302;2023-04-24T10:19:25;1.35;;;1.10;;
76593;SDS011;65482;50.240;14.302;2023-04-24T10:21:51;1.88;;;1.13;;
76593;SDS011;65482;50.240;14.302;2023-04-24T10:24:18;1.80;;;1.20;;
76593;SDS011;65482;50.240;14.302;2023-04-24T10:26:47;1.70;;;1.15;;
76593;SDS011;65482;50.240;14.302;2023-04-24T10:29:14;2.60;;;2.25;;
76593;SDS011;65482;50.240;14.302;2023-04-24T10:31:42;2.08;;;1.35;;
76593;SDS011;65482;50.240;14.302;2023-04-24T10:34:11;2.40;;;1.20;;
76593;SDS011;65482;50.240;14.302;2023-04-24T10:36:41;2.35;;;1.45;;
76593;SDS011;65482;50.240;14.302;2023-04-24T10:39:11;2.30;;;1.50;;
76593;SDS011;65482;50.240;14.302;2023-04-24T10:41:39;2.53;;;1.27;;
76593;SDS011;65482;50.240;14.302;2023-04-24T10:46:35;2.38;;;1.40;;
76593;SDS011;65482;50.240;14.302;2023-04-24T10:49:04;3.33;;;1.30;;
76593;SDS011;65482;50.240;14.302;2023-04-24T10:51:51;2.70;;;1.20;;
76593;SDS011;65482;50.240;14.302;2023-04-24T10:54:45;2.03;;;1.27;;
76593;SDS011;65482;50.240;14.302;2023-04-24T10:59:45;5.53;;;1.88;;
76593;SDS011;65482;50.240;14.302;2023-04-24T11:02:16;3.85;;;1.40;;
76593;SDS011;65482;50.240;14.302;2023-04-24T11:05:02;3.03;;;1.77;;
76593;SDS011;65482;50.240;14.302;2023-04-24T11:07:29;3.65;;;1.40;;
76593;SDS011;65482;50.240;14.302;2023-04-24T11:09:58;2.92;;;1.48;;
76593;SDS011;65482;50.240;14.302;2023-04-24T11:12:26;3.88;;;1.88;;
76593;SDS011;65482;50.240;14.302;2023-04-24T11:20:02;1.88;;;1.00;;
76593;SDS011;65482;50.240;14.302;2023-04-24T11:22:36;1.98;;;1.42;;
76593;SDS011;65482;50.240;14.302;2023-04-24T11:25:03;2.05;;;1.40;;
76593;SDS011;65482;50.240;14.302;2023-04-24T11:27:30;2.15;;;1.33;;
76593;SDS011;65482;50.240;14.302;2023-04-24T11:29:59;3.25;;;1.50;;
76593;SDS011;65482;50.240;14.302;2023-04-24T11:32:30;3.33;;;1.23;;
76593;SDS011;65482;50.240;14.302;2023-04-24T11:34:59;1.30;;;1.15;;
76593;SDS011;65482;50.240;14.302;2023-04-24T11:37:33;1.95;;;1.15;;
76593;SDS011;65482;50.240;14.302;2023-04-24T11:40:01;2.08;;;1.10;;
76593;SDS011;65482;50.240;14.302;2023-04-24T11:42:34;1.75;;;1.10;;
76593;SDS011;65482;50.240;14.302;2023-04-24T11:45:01;2.38;;;1.33;;
76593;SDS011;65482;50.240;14.302;2023-04-24T11:47:31;2.30;;;1.23;;
76593;SDS011;65482;50.240;14.302;2023-04-24T11:50:03;2.45;;;1.10;;
76593;SDS011;65482;50.240;14.302;2023-04-24T11:52:41;1.33;;;1.15;;
76593;SDS011;65482;50.240;14.302;2023-04-24T11:57:54;2.70;;;1.13;;
76593;SDS011;65482;50.240;14.302;2023-04-24T12:00:29;2.03;;;1.10;;
76593;SDS011;65482;50.240;14.302;2023-04-24T12:06:05;4.35;;;1.38;;
76593;SDS011;65482;50.240;14.302;2023-04-24T12:08:48;2.60;;;1.00;;
76593;SDS011;65482;50.240;14.302;2023-04-24T12:11:58;3.25;;;1.38;;
76593;SDS011;65482;50.240;14.302;2023-04-24T12:14:58;1.38;;;1.00;;
76593;SDS011;65482;50.240;14.302;2023-04-24T12:17:41;2.88;;;1.50;;
76593;SDS011;65482;50.240;14.302;2023-04-24T12:20:28;3.75;;;1.40;;
76593;SDS011;65482;50.240;14.302;2023-04-24T12:23:33;6.70;;;1.20;;
76593;SDS011;65482;50.240;14.302;2023-04-24T12:26:03;1.20;;;0.90;;
76593;SDS011;65482;50.240;14.302;2023-04-24T12:28:38;3.25;;;0.88;;
76593;SDS011;65482;50.240;14.302;2023-04-24T13:03:46;3.28;;;0.80;;
76593;SDS011;65482;50.240;14.302;2023-04-24T13:06:11;1.67;;;0.85;;
76593;SDS011;65482;50.240;14.302;2023-04-24T13:08:40;3.17;;;0.90;;
76593;SDS011;65482;50.240;14.302;2023-04-24T13:11:08;3.42;;;1.00;;
76593;SDS011;65482;50.240;14.302;2023-04-24T13:13:34;0.90;;;0.80;;
76593;SDS011;65482;50.240;14.302;2023-04-24T13:16:00;2.97;;;1.20;;
76593;SDS011;65482;50.240;14.302;2023-04-24T13:18:28;2.70;;;0.90;;
76593;SDS011;65482;50.240;14.302;2023-04-24T13:20:57;2.22;;;1.00;;
76593;SDS011;65482;50.240;14.302;2023-04-24T13:23:22;3.63;;;1.10;;
76593;SDS011;65482;50.240;14.302;2023-04-24T13:25:51;2.67;;;1.00;;
76593;SDS011;65482;50.240;14.302;2023-04-24T13:28:16;2.65;;;0.90;;
76593;SDS011;65482;50.240;14.302;2023-04-24T13:30:42;1.80;;;1.00;;
76593;SDS011;65482;50.240;14.302;2023-04-24T13:33:07;1.70;;;0.77;;
76593;SDS011;65482;50.240;14.302;2023-04-24T14:06:54;5.70;;;1.45;;
76593;SDS011;65482;50.240;14.302;2023-04-24T14:09:20;4.93;;;1.50;;
76593;SDS011;65482;50.240;14.302;2023-04-24T14:11:46;7.20;;;1.42;;
76593;SDS011;65482;50.240;14.302;2023-04-24T14:14:12;1.10;;;1.00;;
76593;SDS011;65482;50.240;14.302;2023-04-24T14:16:38;2.95;;;1.10;;
76593;SDS011;65482;50.240;14.302;2023-04-24T14:19:04;1.27;;;1.08;;
76593;SDS011;65482;50.240;14.302;2023-04-24T14:21:32;2.05;;;1.20;;
76593;SDS011;65482;50.240;14.302;2023-04-24T14:23:57;1.38;;;1.08;;
76593;SDS011;65482;50.240;14.302;2023-04-24T14:26:23;3.10;;;1.27;;
76593;SDS011;65482;50.240;14.302;2023-04-24T14:28:50;3.58;;;1.15;;
76593;SDS011;65482;50.240;14.302;2023-04-24T14:31:17;5.63;;;1.90;;
76593;SDS011;65482;50.240;14.302;2023-04-24T14:33:43;3.10;;;1.30;;
76593;SDS011;65482;50.240;14.302;2023-04-24T14:36:09;3.85;;;2.47;;
76593;SDS011;65482;50.240;14.302;2023-04-24T14:38:35;2.90;;;1.40;;
76593;SDS011;65482;50.240;14.302;2023-04-24T14:41:01;1.02;;;0.80;;
76593;SDS011;65482;50.240;14.302;2023-04-24T14:43:32;1.33;;;1.02;;
76593;SDS011;65482;50.240;14.302;2023-04-24T14:46:00;1.23;;;0.82;;
76593;SDS011;65482;50.240;14.302;2023-04-24T14:48:26;3.42;;;1.90;;
76593;SDS011;65482;50.240;14.302;2023-04-24T14:50:52;1.10;;;0.93;;
76593;SDS011;65482;50.240;14.302;2023-04-24T14:53:21;1.65;;;1.00;;
76593;SDS011;65482;50.240;14.302;2023-04-24T14:55:54;2.22;;;1.00;;
76593;SDS011;65482;50.240;14.302;2023-04-24T14:58:19;1.60;;;1.10;;
76593;SDS011;65482;50.240;14.302;2023-04-24T15:01:05;1.20;;;0.93;;
76593;SDS011;65482;50.240;14.302;2023-04-24T15:03:31;1.90;;;1.00;;
76593;SDS011;65482;50.240;14.302;2023-04-24T15:05:57;2.15;;;1.17;;
76593;SDS011;65482;50.240;14.302;2023-04-24T15:08:22;1.70;;;1.17;;
76593;SDS011;65482;50.240;14.302;2023-04-24T15:10:48;2.00;;;1.00;;
76593;SDS011;65482;50.240;14.302;2023-04-24T15:16:59;2.38;;;1.00;;
76593;SDS011;65482;50.240;14.302;2023-04-24T15:53:24;1.80;;;0.85;;
76593;SDS011;65482;50.240;14.302;2023-04-24T15:55:55;4.18;;;1.65;;
76593;SDS011;65482;50.240;14.302;2023-04-24T15:58:25;1.17;;;1.00;;
76593;SDS011;65482;50.240;14.302;2023-04-24T16:01:11;3.22;;;1.10;;
76593;SDS011;65482;50.240;14.302;2023-04-24T16:03:52;2.80;;;1.00;;
76593;SDS011;65482;50.240;14.302;2023-04-24T16:59:34;3.22;;;1.25;;
76593;SDS011;65482;50.240;14.302;2023-04-24T17:20:20;3.22;;;1.70;;
76593;SDS011;65482;50.240;14.302;2023-04-24T17:32:29;3.17;;;1.38;;
76593;SDS011;65482;50.240;14.302;2023-04-24T17:34:57;2.53;;;1.30;;
76593;SDS011;65482;50.240;14.302;2023-04-24T19:05:13;4.22;;;1.70;;
76593;SDS011;65482;50.240;14.302;2023-04-24T19:38:06;2.78;;;1.92;;
76593;SDS011;65482;50.240;14.302;2023-04-24T19:50:09;2.72;;;1.75;;
76593;SDS011;65482;50.240;14.302;2023-04-24T19:52:39;3.65;;;2.10;;
76593;SDS011;65482;50.240;14.302;2023-04-24T20:27:54;3.92;;;2.13;;
76593;SDS011;65482;50.240;14.302;2023-04-24T20:50:00;2.65;;;1.98;;
76593;SDS011;65482;50.240;14.302;2023-04-24T21:30:16;2.83;;;1.80;;
76593;SDS011;65482;50.240;14.302;2023-04-24T22:00:31;4.18;;;2.45;;
76593;SDS011;65482;50.240;14.302;2023-04-24T22:12:26;3.55;;;2.45;;
76593;SDS011;65482;50.240;14.302;2023-04-24T22:33:01;3.92;;;2.40;;
76593;SDS011;65482;50.240;14.302;2023-04-24T23:21:27;3.45;;;2.50;;
76593;SDS011;65482;50.240;14.302;2023-04-24T23:24:20;5.35;;;2.97;;
